Time;durP1;ratioP1;P1;durP2;ratioP2;P2;SDS_P1;SDS_P2;PMS_P1;PMS_P2;Temp;Humidity;BMP_temperature;BMP_pressure;BME280_temperature;BME280_humidity;BME280_pressure;Samples;Min_cycle;Max_cycle;Signal;HPM_P1;HPM_P2
2021/03/22 00:02:05;;;;;;;11.40;2.15;;;;;;;;;;4982789;28;20038;-60
2021/03/22 00:04:32;;;;;;;9.55;2.75;;;;;;;;;;4989029;28;20038;-61
2021/03/22 00:07:14;;;;;;;15.55;1.88;;;;;;;;;;4989322;28;20046;-60
2021/03/22 00:09:40;;;;;;;6.45;1.30;;;;;;;;;;5005731;28;20035;-61
2021/03/22 00:12:06;;;;;;;13.15;1.83;;;;;;;;;;5004693;28;20030;-61
2021/03/22 00:14:32;;;;;;;15.27;2.00;;;;;;;;;;5018124;28;20046;-61
2021/03/22 00:17:09;;;;;;;16.48;1.90;;;;;;;;;;5009160;28;20037;-60
2021/03/22 00:19:36;;;;;;;8.02;1.73;;;;;;;;;;5003288;28;20037;-59
2021/03/22 00:22:02;;;;;;;13.70;1.90;;;;;;;;;;5009765;28;20049;-59
2021/03/22 00:24:28;;;;;;;7.50;1.42;;;;;;;;;;4996249;28;20100;-60
2021/03/22 00:26:56;;;;;;;10.98;2.05;;;;;;;;;;5009672;28;20053;-58
2021/03/22 00:29:22;;;;;;;10.18;2.13;;;;;;;;;;5005068;28;20053;-60
2021/03/22 00:31:48;;;;;;;11.95;1.88;;;;;;;;;;5008154;28;20030;-60
2021/03/22 00:34:14;;;;;;;10.00;1.50;;;;;;;;;;4996630;28;20088;-60
2021/03/22 00:36:54;;;;;;;12.55;1.90;;;;;;;;;;4989789;28;20042;-59
2021/03/22 00:39:21;;;;;;;13.75;1.88;;;;;;;;;;4984014;28;20126;-61
2021/03/22 00:41:47;;;;;;;11.75;1.75;;;;;;;;;;4988563;28;20038;-61
2021/03/22 00:44:13;;;;;;;14.20;1.98;;;;;;;;;;4991378;28;20037;-61
2021/03/22 00:46:46;;;;;;;13.30;1.77;;;;;;;;;;5007858;28;20025;-59
2021/03/22 00:49:12;;;;;;;8.98;2.03;;;;;;;;;;5000548;28;20057;-59
2021/03/22 00:51:38;;;;;;;14.43;1.67;;;;;;;;;;5007174;28;20074;-61
2021/03/22 00:54:05;;;;;;;13.45;2.28;;;;;;;;;;4986645;28;20058;-61
2021/03/22 00:56:42;;;;;;;16.42;1.90;;;;;;;;;;5010022;28;20038;-58
2021/03/22 00:59:09;;;;;;;10.48;1.85;;;;;;;;;;5032150;28;20041;-58
2021/03/22 01:01:34;;;;;;;14.57;1.70;;;;;;;;;;5004115;28;20170;-60
2021/03/22 01:04:00;;;;;;;14.32;1.83;;;;;;;;;;4983169;28;20049;-60
2021/03/22 01:06:27;;;;;;;10.27;1.83;;;;;;;;;;4962767;28;20028;-60
2021/03/22 01:08:53;;;;;;;7.38;2.00;;;;;;;;;;4966829;28;20035;-60
2021/03/22 01:11:22;;;;;;;9.07;1.60;;;;;;;;;;4963212;28;20058;-61
2021/03/22 01:13:50;;;;;;;7.28;1.80;;;;;;;;;;4966513;28;20043;-60
2021/03/22 01:16:17;;;;;;;13.75;2.00;;;;;;;;;;4974370;28;20054;-61
2021/03/22 01:18:46;;;;;;;18.20;1.95;;;;;;;;;;4985998;28;20046;-61
2021/03/22 01:21:17;;;;;;;14.52;2.03;;;;;;;;;;4981489;28;20026;-56
2021/03/22 01:23:43;;;;;;;15.18;2.78;;;;;;;;;;4985419;28;20047;-60
2021/03/22 01:26:19;;;;;;;11.75;2.08;;;;;;;;;;4974709;28;20110;-61
2021/03/22 01:28:46;;;;;;;10.70;1.80;;;;;;;;;;4966587;28;20044;-60
2021/03/22 01:31:12;;;;;;;9.82;1.77;;;;;;;;;;4965430;28;20147;-60
2021/03/22 01:33:39;;;;;;;15.13;2.38;;;;;;;;;;4966709;28;20094;-60
2021/03/22 01:36:09;;;;;;;15.18;1.92;;;;;;;;;;4961950;28;20060;-61
2021/03/22 01:38:35;;;;;;;12.60;2.20;;;;;;;;;;4968497;28;20035;-60
2021/03/22 01:41:10;;;;;;;11.30;2.08;;;;;;;;;;4966263;28;20047;-59
2021/03/22 01:43:56;;;;;;;8.45;2.20;;;;;;;;;;4968941;28;20125;-61
2021/03/22 01:46:22;;;;;;;8.65;1.67;;;;;;;;;;4982127;28;20061;-60
2021/03/22 01:48:48;;;;;;;9.88;1.77;;;;;;;;;;4985357;28;20039;-61
2021/03/22 01:51:15;;;;;;;19.45;2.42;;;;;;;;;;4984691;28;20120;-60
2021/03/22 01:53:41;;;;;;;9.32;1.83;;;;;;;;;;4989045;28;20445;-59
2021/03/22 01:56:14;;;;;;;13.95;2.03;;;;;;;;;;4989246;28;20054;-59
2021/03/22 01:58:40;;;;;;;9.10;1.98;;;;;;;;;;4967449;28;20069;-61
2021/03/22 02:01:07;;;;;;;10.68;2.08;;;;;;;;;;4969218;28;20027;-60
2021/03/22 02:03:33;;;;;;;15.65;2.65;;;;;;;;;;4991349;28;20026;-60
2021/03/22 02:06:11;;;;;;;8.98;2.00;;;;;;;;;;5007424;28;20066;-60
2021/03/22 02:08:38;;;;;;;11.15;1.98;;;;;;;;;;5000501;28;20030;-60
2021/03/22 02:11:05;;;;;;;10.43;2.50;;;;;;;;;;5006639;28;20038;-60
2021/03/22 02:13:32;;;;;;;12.95;2.05;;;;;;;;;;4992837;28;20043;-59
2021/03/22 02:16:18;;;;;;;13.35;2.15;;;;;;;;;;4988361;28;20053;-60
2021/03/22 02:18:52;;;;;;;15.68;2.53;;;;;;;;;;4983034;28;20051;-59
2021/03/22 02:21:45;;;;;;;11.88;2.00;;;;;;;;;;4988240;28;20034;-60
2021/03/22 02:24:28;;;;;;;8.35;2.15;;;;;;;;;;4985357;28;20055;-59
2021/03/22 02:27:13;;;;;;;10.00;2.50;;;;;;;;;;4992375;28;20034;-59
2021/03/22 02:29:46;;;;;;;15.85;2.47;;;;;;;;;;4984213;28;20031;-60
2021/03/22 02:32:20;;;;;;;13.88;2.60;;;;;;;;;;4986198;28;20034;-60
2021/03/22 02:34:49;;;;;;;14.43;2.90;;;;;;;;;;4985253;28;20049;-61
2021/03/22 02:37:28;;;;;;;8.85;1.88;;;;;;;;;;4986845;28;20038;-61
2021/03/22 02:40:02;;;;;;;12.40;2.40;;;;;;;;;;4984659;28;20038;-59
2021/03/22 02:42:29;;;;;;;11.68;2.67;;;;;;;;;;4984337;28;20050;-61
2021/03/22 02:45:01;;;;;;;10.07;2.60;;;;;;;;;;4982839;28;20038;-60
2021/03/22 02:47:30;;;;;;;20.58;2.97;;;;;;;;;;4986335;28;20038;-61
2021/03/22 02:49:58;;;;;;;15.68;2.92;;;;;;;;;;4982818;28;20042;-60
2021/03/22 02:52:38;;;;;;;21.80;2.78;;;;;;;;;;4985991;28;20136;-62
2021/03/22 02:55:23;;;;;;;12.35;2.53;;;;;;;;;;4984449;28;20118;-61
2021/03/22 02:57:50;;;;;;;14.45;2.42;;;;;;;;;;4988490;28;20031;-60
2021/03/22 03:00:18;;;;;;;15.43;2.88;;;;;;;;;;4983710;28;20030;-59
2021/03/22 03:02:45;;;;;;;17.63;3.08;;;;;;;;;;4986126;28;20031;-61
2021/03/22 03:05:13;;;;;;;18.98;2.80;;;;;;;;;;4974240;28;20050;-59
2021/03/22 03:07:40;;;;;;;11.50;2.85;;;;;;;;;;4967097;28;20090;-60
2021/03/22 03:10:07;;;;;;;10.73;2.85;;;;;;;;;;4971500;28;20049;-60
2021/03/22 03:12:33;;;;;;;13.13;3.08;;;;;;;;;;4988069;28;20046;-60
2021/03/22 03:15:18;;;;;;;16.17;3.10;;;;;;;;;;4983758;28;20047;-60
2021/03/22 03:17:44;;;;;;;11.38;2.72;;;;;;;;;;4950069;28;20046;-61
2021/03/22 03:20:12;;;;;;;12.55;3.08;;;;;;;;;;4973390;28;20031;-61
2021/03/22 03:22:40;;;;;;;15.38;3.42;;;;;;;;;;4967474;28;20035;-61
2021/03/22 03:25:08;;;;;;;18.10;3.03;;;;;;;;;;4964276;28;20508;-59
2021/03/22 03:27:34;;;;;;;15.90;3.40;;;;;;;;;;4967156;28;20035;-59
2021/03/22 03:30:00;;;;;;;13.93;3.05;;;;;;;;;;4966364;28;20035;-59
2021/03/22 03:32:27;;;;;;;19.55;3.38;;;;;;;;;;4983136;28;20034;-61
2021/03/22 03:34:53;;;;;;;13.32;3.60;;;;;;;;;;4988833;28;20128;-61
2021/03/22 03:37:19;;;;;;;13.38;3.00;;;;;;;;;;4982018;28;20042;-59
2021/03/22 03:39:45;;;;;;;18.15;3.28;;;;;;;;;;4987416;28;20039;-59
2021/03/22 03:42:12;;;;;;;18.33;3.60;;;;;;;;;;4970128;28;20155;-59
2021/03/22 03:44:39;;;;;;;15.20;3.70;;;;;;;;;;4991501;28;20047;-60
2021/03/22 03:47:06;;;;;;;16.10;3.30;;;;;;;;;;4964597;28;20027;-58
2021/03/22 03:49:32;;;;;;;24.85;3.70;;;;;;;;;;4967786;28;20039;-59
2021/03/22 03:51:58;;;;;;;15.73;3.33;;;;;;;;;;4969270;28;20035;-57
2021/03/22 03:54:24;;;;;;;13.23;2.78;;;;;;;;;;4968128;28;20095;-61
2021/03/22 03:56:51;;;;;;;14.82;3.50;;;;;;;;;;4963101;28;20049;-61
2021/03/22 03:59:17;;;;;;;17.10;3.22;;;;;;;;;;4970029;28;20121;-61
2021/03/22 04:01:43;;;;;;;9.68;2.85;;;;;;;;;;4965476;28;20027;-60
2021/03/22 04:04:09;;;;;;;11.05;2.92;;;;;;;;;;5003386;28;20162;-61
2021/03/22 04:06:37;;;;;;;13.98;3.28;;;;;;;;;;5001717;28;20046;-61
2021/03/22 04:09:05;;;;;;;11.23;2.78;;;;;;;;;;4985143;28;20094;-61
2021/03/22 04:11:32;;;;;;;10.77;2.90;;;;;;;;;;4987351;28;20053;-62
2021/03/22 04:14:00;;;;;;;18.98;3.72;;;;;;;;;;5001082;28;20046;-60
2021/03/22 04:16:28;;;;;;;18.77;3.65;;;;;;;;;;5007288;28;20026;-60
2021/03/22 04:18:55;;;;;;;18.00;3.72;;;;;;;;;;4999346;28;20074;-60
2021/03/22 04:21:22;;;;;;;18.65;3.15;;;;;;;;;;4987900;28;20146;-59
2021/03/22 04:23:48;;;;;;;12.05;3.00;;;;;;;;;;4998965;28;20088;-61
2021/03/22 04:26:23;;;;;;;12.38;2.65;;;;;;;;;;4967059;28;20050;-60
2021/03/22 04:28:49;;;;;;;14.43;3.20;;;;;;;;;;4980834;28;20054;-59
2021/03/22 04:31:16;;;;;;;16.48;4.00;;;;;;;;;;4985207;28;20101;-61
2021/03/22 04:33:43;;;;;;;18.85;3.40;;;;;;;;;;4983006;28;20062;-61
2021/03/22 04:36:16;;;;;;;15.93;3.78;;;;;;;;;;4985292;28;20039;-61
2021/03/22 04:38:42;;;;;;;10.88;2.97;;;;;;;;;;4989500;28;20047;-60
2021/03/22 04:41:08;;;;;;;17.48;3.08;;;;;;;;;;5005829;28;20173;-61
2021/03/22 04:43:34;;;;;;;19.30;3.30;;;;;;;;;;5000093;28;20045;-61
2021/03/22 04:46:07;;;;;;;12.43;3.22;;;;;;;;;;5006332;28;20066;-60
2021/03/22 04:48:34;;;;;;;25.48;3.88;;;;;;;;;;4997823;28;20023;-60
2021/03/22 04:51:00;;;;;;;16.48;4.18;;;;;;;;;;4986584;28;20099;-61
2021/03/22 04:53:26;;;;;;;18.20;3.78;;;;;;;;;;4983200;28;20039;-58
2021/03/22 04:55:54;;;;;;;13.88;3.47;;;;;;;;;;4985158;28;20046;-60
2021/03/22 04:58:20;;;;;;;21.60;3.80;;;;;;;;;;4986021;28;20108;-57
2021/03/22 05:00:47;;;;;;;15.35;3.63;;;;;;;;;;4999949;28;20046;-59
2021/03/22 05:03:15;;;;;;;13.77;3.58;;;;;;;;;;5004633;28;20058;-59
2021/03/22 05:05:59;;;;;;;13.73;3.08;;;;;;;;;;4984278;28;20084;-59
2021/03/22 05:08:26;;;;;;;15.43;3.30;;;;;;;;;;4984658;28;20030;-59
2021/03/22 05:10:53;;;;;;;17.65;3.38;;;;;;;;;;4997581;28;20123;-59
2021/03/22 05:13:20;;;;;;;21.05;4.03;;;;;;;;;;5004785;28;20045;-55
2021/03/22 05:15:49;;;;;;;23.90;3.50;;;;;;;;;;4993800;28;20046;-54
2021/03/22 05:18:16;;;;;;;21.58;3.67;;;;;;;;;;4988781;28;20469;-59
2021/03/22 05:20:44;;;;;;;13.90;3.03;;;;;;;;;;4983108;28;20034;-61
2021/03/22 05:23:12;;;;;;;15.02;3.00;;;;;;;;;;4985584;28;20039;-61
2021/03/22 05:25:40;;;;;;;14.88;3.10;;;;;;;;;;4982093;28;20038;-60
2021/03/22 05:28:07;;;;;;;16.17;3.08;;;;;;;;;;4985731;28;20038;-59
2021/03/22 05:30:34;;;;;;;15.98;3.17;;;;;;;;;;4981323;28;20051;-60
2021/03/22 05:33:00;;;;;;;22.08;2.72;;;;;;;;;;4987354;28;20046;-61
2021/03/22 05:35:28;;;;;;;10.38;2.95;;;;;;;;;;4982151;28;20038;-61
2021/03/22 05:37:55;;;;;;;13.95;3.00;;;;;;;;;;4985769;28;20047;-59
2021/03/22 05:40:23;;;;;;;24.27;3.47;;;;;;;;;;4984233;28;20038;-61
2021/03/22 05:43:01;;;;;;;9.80;2.53;;;;;;;;;;5003800;28;20039;-60
2021/03/22 05:48:24;;;;;;;13.18;3.08;;;;;;;;;;4983808;28;20283;-61
2021/03/22 05:51:02;;;;;;;11.50;2.95;;;;;;;;;;4980697;28;20051;-58
2021/03/22 05:53:35;;;;;;;14.93;3.47;;;;;;;;;;4983464;28;20065;-58
2021/03/22 05:56:05;;;;;;;19.83;3.85;;;;;;;;;;4992048;28;20065;-61
2021/03/22 05:58:40;;;;;;;19.15;2.58;;;;;;;;;;4997430;28;20038;-60
2021/03/22 06:01:11;;;;;;;14.00;2.60;;;;;;;;;;4996371;28;20037;-59
2021/03/22 06:03:39;;;;;;;13.77;3.13;;;;;;;;;;4984090;28;20120;-58
2021/03/22 06:06:09;;;;;;;20.00;2.70;;;;;;;;;;4975277;28;20049;-60
2021/03/22 06:08:38;;;;;;;11.43;2.55;;;;;;;;;;4979272;28;20039;-60
2021/03/22 06:11:13;;;;;;;9.45;2.50;;;;;;;;;;4977625;28;20065;-61
2021/03/22 06:13:41;;;;;;;13.23;2.53;;;;;;;;;;4976822;28;20047;-58
2021/03/22 06:16:18;;;;;;;13.32;2.67;;;;;;;;;;4976699;28;20050;-61
2021/03/22 06:18:50;;;;;;;14.45;2.60;;;;;;;;;;4978444;28;20093;-58
2021/03/22 06:21:16;;;;;;;11.60;2.65;;;;;;;;;;4978023;28;20031;-61
2021/03/22 06:23:43;;;;;;;15.13;3.08;;;;;;;;;;4974905;28;20046;-61
2021/03/22 06:26:25;;;;;;;14.73;2.90;;;;;;;;;;4984314;28;20062;-59
2021/03/22 06:28:54;;;;;;;12.70;2.38;;;;;;;;;;4980520;28;20116;-60
2021/03/22 06:31:22;;;;;;;16.23;3.05;;;;;;;;;;4983878;28;20075;-61
2021/03/22 06:33:50;;;;;;;14.07;2.70;;;;;;;;;;4971666;28;20050;-61
2021/03/22 06:39:11;;;;;;;19.83;3.22;;;;;;;;;;4977505;28;20043;-59
2021/03/22 06:41:40;;;;;;;12.63;2.75;;;;;;;;;;4983526;28;20115;-61
2021/03/22 06:44:06;;;;;;;;;;;;;;;;;;4974657;28;20071;-58
2021/03/22 06:46:50;;;;;;;17.35;3.00;;;;;;;;;;4975955;28;20038;-60
2021/03/22 06:49:21;;;;;;;13.35;2.83;;;;;;;;;;4978534;28;20034;-60
2021/03/22 06:51:55;;;;;;;13.98;2.97;;;;;;;;;;4984426;28;20034;-59
2021/03/22 06:54:28;;;;;;;16.23;3.10;;;;;;;;;;4977993;28;20532;-58
2021/03/22 06:57:10;;;;;;;11.55;2.60;;;;;;;;;;4981587;28;20038;-59
2021/03/22 06:59:36;;;;;;;15.68;2.30;;;;;;;;;;4976460;28;20054;-62
2021/03/22 07:02:26;;;;;;;11.93;2.92;;;;;;;;;;4986140;28;20162;-60
2021/03/22 07:04:52;;;;;;;15.40;3.08;;;;;;;;;;4982553;28;20039;-61
2021/03/22 07:07:19;;;;;;;13.57;2.60;;;;;;;;;;5002514;28;20128;-61
2021/03/22 07:09:46;;;;;;;12.07;2.67;;;;;;;;;;5003557;28;20516;-61
2021/03/22 07:12:24;;;;;;;15.10;2.70;;;;;;;;;;5008036;28;20100;-60
2021/03/22 07:14:50;;;;;;;8.05;2.13;;;;;;;;;;5000307;28;20092;-60
2021/03/22 07:17:17;;;;;;;18.23;2.70;;;;;;;;;;5007255;28;20038;-61
2021/03/22 07:19:43;;;;;;;15.68;2.67;;;;;;;;;;5000472;28;20030;-61
2021/03/22 07:22:19;;;;;;;9.00;2.03;;;;;;;;;;5005927;28;20053;-61
2021/03/22 07:24:47;;;;;;;12.07;2.47;;;;;;;;;;4996389;28;20117;-58
2021/03/22 07:27:17;;;;;;;11.97;2.00;;;;;;;;;;4986877;28;20038;-62
2021/03/22 07:30:02;;;;;;;13.02;2.20;;;;;;;;;;4982702;28;20045;-61
2021/03/22 07:32:37;;;;;;;13.80;1.88;;;;;;;;;;4984118;28;20043;-61
2021/03/22 07:35:15;;;;;;;6.60;1.73;;;;;;;;;;4982305;28;20053;-59
2021/03/22 07:37:45;;;;;;;15.13;2.08;;;;;;;;;;4985557;28;20050;-62
2021/03/22 07:40:15;;;;;;;5.55;1.77;;;;;;;;;;4985826;28;20050;-61
2021/03/22 07:42:46;;;;;;;12.65;1.70;;;;;;;;;;5005443;28;20031;-61
2021/03/22 07:45:19;;;;;;;8.80;1.45;;;;;;;;;;4992104;28;20058;-61
2021/03/22 07:48:03;;;;;;;10.80;1.77;;;;;;;;;;4986729;28;20035;-61
2021/03/22 07:50:31;;;;;;;9.50;1.42;;;;;;;;;;4984363;28;20081;-58
2021/03/22 07:53:01;;;;;;;13.17;1.83;;;;;;;;;;5005772;28;20038;-61
2021/03/22 07:55:48;;;;;;;11.07;2.13;;;;;;;;;;5000867;28;20034;-59
2021/03/22 07:58:19;;;;;;;13.90;1.50;;;;;;;;;;4981565;28;20043;-62
2021/03/22 08:00:51;;;;;;;7.65;1.60;;;;;;;;;;4984170;28;20112;-62
2021/03/22 08:03:24;;;;;;;4.85;1.50;;;;;;;;;;5002720;28;20108;-60
2021/03/22 08:05:56;;;;;;;10.70;1.60;;;;;;;;;;4977265;28;20039;-60
2021/03/22 08:08:25;;;;;;;12.63;1.70;;;;;;;;;;4973288;28;20054;-60
2021/03/22 08:10:57;;;;;;;12.32;1.60;;;;;;;;;;4966410;28;20193;-61
2021/03/22 08:13:34;;;;;;;17.85;1.92;;;;;;;;;;4957879;28;20055;-61
2021/03/22 08:16:12;;;;;;;17.10;2.30;;;;;;;;;;4963961;28;20059;-61
2021/03/22 08:18:40;;;;;;;14.25;2.10;;;;;;;;;;4982991;28;20042;-59
2021/03/22 08:21:08;;;;;;;16.08;2.65;;;;;;;;;;5002319;28;20057;-61
2021/03/22 08:23:39;;;;;;;12.30;1.83;;;;;;;;;;4964722;28;20058;-61
2021/03/22 08:26:13;;;;;;;10.88;2.15;;;;;;;;;;4967049;28;20049;-62
2021/03/22 08:28:40;;;;;;;10.65;1.30;;;;;;;;;;4963682;28;20072;-62
2021/03/22 08:31:11;;;;;;;8.23;1.23;;;;;;;;;;4965406;28;20122;-61
2021/03/22 08:33:41;;;;;;;2.95;1.02;;;;;;;;;;4963706;28;20156;-59
2021/03/22 08:36:18;;;;;;;3.75;1.30;;;;;;;;;;4966073;28;20046;-60
2021/03/22 08:38:45;;;;;;;6.03;1.27;;;;;;;;;;4976164;28;20053;-60
2021/03/22 08:41:29;;;;;;;3.85;0.95;;;;;;;;;;4985252;28;20072;-61
2021/03/22 08:43:58;;;;;;;5.95;1.20;;;;;;;;;;4989676;28;20035;-60
2021/03/22 08:46:30;;;;;;;10.70;1.00;;;;;;;;;;4980914;28;20058;-62
2021/03/22 08:48:56;;;;;;;5.63;0.98;;;;;;;;;;4963610;28;20039;-60
2021/03/22 08:51:25;;;;;;;9.05;1.33;;;;;;;;;;4965210;28;20050;-60
2021/03/22 08:53:52;;;;;;;6.55;0.98;;;;;;;;;;4963484;28;20039;-61
2021/03/22 08:56:31;;;;;;;12.10;1.35;;;;;;;;;;4966678;28;20039;-60
2021/03/22 08:58:59;;;;;;;8.68;1.00;;;;;;;;;;4963594;28;20042;-61
2021/03/22 09:01:28;;;;;;;7.20;0.95;;;;;;;;;;4966977;28;20091;-60
2021/03/22 09:03:56;;;;;;;2.53;0.80;;;;;;;;;;4994380;28;20035;-60
2021/03/22 09:06:38;;;;;;;2.73;0.70;;;;;;;;;;4987088;28;20034;-61
2021/03/22 09:09:06;;;;;;;3.63;0.93;;;;;;;;;;4991306;28;20084;-61
2021/03/22 09:11:39;;;;;;;1.88;0.60;;;;;;;;;;5004888;28;20044;-60
2021/03/22 09:14:07;;;;;;;12.70;0.95;;;;;;;;;;4998107;28;20050;-60
2021/03/22 09:16:51;;;;;;;5.18;0.80;;;;;;;;;;4987492;28;20081;-60
2021/03/22 09:19:32;;;;;;;2.00;0.52;;;;;;;;;;5001567;28;20042;-60
2021/03/22 09:22:13;;;;;;;3.22;0.57;;;;;;;;;;4988430;28;20034;-61
2021/03/22 09:24:54;;;;;;;3.95;0.65;;;;;;;;;;4982484;28;20122;-61
2021/03/22 09:27:28;;;;;;;3.72;0.45;;;;;;;;;;4987014;28;20030;-60
2021/03/22 09:30:14;;;;;;;1.80;0.70;;;;;;;;;;4992688;28;20041;-60
2021/03/22 09:32:41;;;;;;;9.27;0.57;;;;;;;;;;5012787;28;20046;-62
2021/03/22 09:35:24;;;;;;;5.78;0.30;;;;;;;;;;5026769;28;20038;-59
2021/03/22 09:37:52;;;;;;;1.00;0.20;;;;;;;;;;5007241;28;20069;-60
2021/03/22 09:40:37;;;;;;;7.03;0.30;;;;;;;;;;4996261;28;20088;-60
2021/03/22 09:43:12;;;;;;;15.57;0.40;;;;;;;;;;4986827;28;20108;-61
2021/03/22 09:46:04;;;;;;;3.40;0.47;;;;;;;;;;4995648;28;20038;-61
2021/03/22 09:48:32;;;;;;;2.40;0.60;;;;;;;;;;5023755;28;20038;-60
2021/03/22 09:51:13;;;;;;;5.20;0.40;;;;;;;;;;4993773;28;20042;-60
2021/03/22 09:53:49;;;;;;;12.30;0.60;;;;;;;;;;4985540;28;20038;-61
2021/03/22 09:56:26;;;;;;;4.45;0.52;;;;;;;;;;4982602;28;20055;-61
2021/03/22 09:58:52;;;;;;;4.15;0.60;;;;;;;;;;4987742;28;20057;-60
2021/03/22 10:01:45;;;;;;;12.98;0.90;;;;;;;;;;4984978;28;20078;-60
2021/03/22 10:04:22;;;;;;;3.85;0.63;;;;;;;;;;4960617;28;20124;-62
2021/03/22 10:06:52;;;;;;;2.83;0.30;;;;;;;;;;4982684;28;20050;-60
2021/03/22 10:09:22;;;;;;;1.65;0.50;;;;;;;;;;4987001;28;20050;-61
2021/03/22 10:11:49;;;;;;;1.38;0.45;;;;;;;;;;4984581;28;20037;-61
2021/03/22 10:14:20;;;;;;;9.13;0.93;;;;;;;;;;4989123;28;20037;-59
2021/03/22 10:16:51;;;;;;;9.73;0.65;;;;;;;;;;4987853;28;20026;-61
2021/03/22 10:19:19;;;;;;;2.10;0.40;;;;;;;;;;4989153;28;20060;-61
2021/03/22 10:21:47;;;;;;;2.22;0.50;;;;;;;;;;4992248;28;20037;-60
2021/03/22 10:24:18;;;;;;;1.48;0.50;;;;;;;;;;5009616;28;20058;-60
2021/03/22 10:27:03;;;;;;;2.55;0.60;;;;;;;;;;5004705;28;20062;-60
2021/03/22 10:29:31;;;;;;;5.88;0.77;;;;;;;;;;5009590;28;20164;-60
2021/03/22 10:31:59;;;;;;;0.95;0.50;;;;;;;;;;5003466;28;20049;-60
2021/03/22 10:34:29;;;;;;;4.95;0.80;;;;;;;;;;4991050;28;20438;-61
2021/03/22 10:36:55;;;;;;;1.35;0.50;;;;;;;;;;4988875;28;20119;-61
2021/03/22 10:39:25;;;;;;;3.53;0.85;;;;;;;;;;5010629;28;20034;-61
2021/03/22 10:41:51;;;;;;;2.67;0.60;;;;;;;;;;5023891;28;20038;-61
2021/03/22 10:44:21;;;;;;;3.03;0.40;;;;;;;;;;5000134;28;20041;-62
2021/03/22 10:47:05;;;;;;;3.92;0.73;;;;;;;;;;4990510;28;20034;-61
2021/03/22 10:49:32;;;;;;;2.95;0.65;;;;;;;;;;4945203;29;20036;-62
2021/03/22 10:52:01;;;;;;;8.88;0.70;;;;;;;;;;4996156;28;20111;-60
2021/03/22 10:54:39;;;;;;;1.75;0.60;;;;;;;;;;4990781;28;20042;-61
2021/03/22 10:57:06;;;;;;;3.25;0.55;;;;;;;;;;4989605;28;20039;-62
2021/03/22 10:59:37;;;;;;;21.40;0.93;;;;;;;;;;4989082;28;20120;-61
2021/03/22 11:02:17;;;;;;;2.10;0.52;;;;;;;;;;4996389;28;20116;-61
2021/03/22 11:04:57;;;;;;;1.90;0.55;;;;;;;;;;4987192;28;20041;-62
2021/03/22 11:07:24;;;;;;;2.55;0.60;;;;;;;;;;4989065;28;20038;-61
2021/03/22 11:09:52;;;;;;;3.80;0.65;;;;;;;;;;4999767;28;20058;-61
2021/03/22 11:12:18;;;;;;;3.42;0.63;;;;;;;;;;4997145;28;20050;-62
2021/03/22 11:14:47;;;;;;;3.47;0.60;;;;;;;;;;4996804;28;20038;-60
2021/03/22 11:17:15;;;;;;;2.20;0.65;;;;;;;;;;4998557;28;20049;-62
2021/03/22 11:19:44;;;;;;;2.63;0.98;;;;;;;;;;5014829;28;20061;-62
2021/03/22 11:22:23;;;;;;;4.38;0.73;;;;;;;;;;4995814;28;20038;-62
2021/03/22 11:24:56;;;;;;;3.42;0.40;;;;;;;;;;4992040;28;20034;-60
2021/03/22 11:27:23;;;;;;;1.60;0.60;;;;;;;;;;4995936;28;20057;-61
2021/03/22 11:29:53;;;;;;;1.23;0.50;;;;;;;;;;4991652;28;20093;-62
2021/03/22 11:32:20;;;;;;;4.03;0.50;;;;;;;;;;4993942;28;20048;-61
2021/03/22 11:34:47;;;;;;;2.00;0.52;;;;;;;;;;4993632;28;20070;-61
2021/03/22 11:37:15;;;;;;;1.38;0.50;;;;;;;;;;5005647;28;20046;-62
2021/03/22 11:39:43;;;;;;;2.63;0.40;;;;;;;;;;4996477;28;20056;-61
2021/03/22 11:42:21;;;;;;;3.80;0.80;;;;;;;;;;4997927;28;20034;-62
2021/03/22 11:44:52;;;;;;;1.52;0.65;;;;;;;;;;4994187;28;20046;-61
2021/03/22 11:47:35;;;;;;;1.90;0.50;;;;;;;;;;5000242;28;20038;-62
2021/03/22 11:50:01;;;;;;;3.33;0.50;;;;;;;;;;4988486;28;20027;-60
2021/03/22 11:52:27;;;;;;;2.15;0.50;;;;;;;;;;4995777;28;20156;-60
2021/03/22 11:54:56;;;;;;;1.38;0.52;;;;;;;;;;5001203;28;20049;-62
2021/03/22 11:57:24;;;;;;;1.75;0.60;;;;;;;;;;4998727;28;20034;-62
2021/03/22 11:59:52;;;;;;;3.25;0.45;;;;;;;;;;4996173;28;20034;-61
2021/03/22 12:02:30;;;;;;;0.70;0.50;;;;;;;;;;4993519;28;20172;-61
2021/03/22 12:04:58;;;;;;;3.13;0.60;;;;;;;;;;4997912;28;20057;-61
2021/03/22 12:07:41;;;;;;;1.65;0.55;;;;;;;;;;4991054;28;20034;-62
2021/03/22 12:10:14;;;;;;;3.05;0.68;;;;;;;;;;4997333;28;20439;-61
2021/03/22 12:12:41;;;;;;;1.17;0.47;;;;;;;;;;5016563;28;20037;-61
2021/03/22 12:15:09;;;;;;;1.42;0.57;;;;;;;;;;5003475;28;20044;-61
2021/03/22 12:17:37;;;;;;;4.85;0.45;;;;;;;;;;4989449;28;20048;-61
2021/03/22 12:20:03;;;;;;;1.25;0.40;;;;;;;;;;4996407;28;20045;-60
2021/03/22 12:22:29;;;;;;;2.83;0.70;;;;;;;;;;4986920;28;20078;-62
2021/03/22 12:25:04;;;;;;;3.85;0.80;;;;;;;;;;4999895;28;20038;-62
2021/03/22 12:27:31;;;;;;;2.30;0.60;;;;;;;;;;4990638;28;20034;-62
2021/03/22 12:29:57;;;;;;;1.25;0.60;;;;;;;;;;5005988;28;20048;-62
2021/03/22 12:32:24;;;;;;;2.33;0.68;;;;;;;;;;5000825;28;20069;-61
2021/03/22 12:34:50;;;;;;;0.80;0.60;;;;;;;;;;5008584;28;20053;-61
2021/03/22 12:37:22;;;;;;;1.02;0.60;;;;;;;;;;4994427;28;20034;-62
2021/03/22 12:39:48;;;;;;;4.18;0.77;;;;;;;;;;4989973;28;20034;-61
2021/03/22 12:42:15;;;;;;;3.28;0.65;;;;;;;;;;4993243;28;20108;-61
2021/03/22 12:44:42;;;;;;;0.77;0.55;;;;;;;;;;5002652;28;20034;-61
2021/03/22 12:47:10;;;;;;;1.75;0.60;;;;;;;;;;4986093;28;20119;-62
2021/03/22 12:49:37;;;;;;;1.17;0.40;;;;;;;;;;4989255;28;20034;-61
2021/03/22 12:52:03;;;;;;;1.10;0.47;;;;;;;;;;5015214;28;20042;-60
2021/03/22 12:54:29;;;;;;;1.80;0.70;;;;;;;;;;4997430;28;20034;-62
2021/03/22 12:56:55;;;;;;;1.90;0.60;;;;;;;;;;4994740;28;20054;-62
2021/03/22 12:59:27;;;;;;;1.63;0.60;;;;;;;;;;4997075;28;20041;-61
2021/03/22 13:01:54;;;;;;;3.13;0.75;;;;;;;;;;5018246;28;20053;-61
2021/03/22 13:04:20;;;;;;;4.15;0.73;;;;;;;;;;4985814;28;20113;-61
2021/03/22 13:06:56;;;;;;;2.97;1.08;;;;;;;;;;4972155;28;20075;-61
2021/03/22 13:09:22;;;;;;;1.10;0.57;;;;;;;;;;4968798;28;20121;-60
2021/03/22 13:11:48;;;;;;;2.97;0.60;;;;;;;;;;4971681;28;20055;-61
2021/03/22 13:14:16;;;;;;;4.97;1.08;;;;;;;;;;4975533;28;20066;-61
2021/03/22 13:16:45;;;;;;;4.55;0.77;;;;;;;;;;4985486;28;20034;-61
2021/03/22 13:19:13;;;;;;;0.68;0.45;;;;;;;;;;4972176;28;20046;-61
2021/03/22 13:21:40;;;;;;;2.75;0.50;;;;;;;;;;4966038;28;20043;-60
2021/03/22 13:24:06;;;;;;;3.45;0.65;;;;;;;;;;4960429;28;20031;-60
2021/03/22 13:26:33;;;;;;;2.63;0.57;;;;;;;;;;4980816;28;20047;-61
2021/03/22 13:28:59;;;;;;;1.33;0.70;;;;;;;;;;4962670;28;20054;-62
2021/03/22 13:31:25;;;;;;;1.35;0.65;;;;;;;;;;4958408;28;20035;-62
2021/03/22 13:33:51;;;;;;;4.60;0.90;;;;;;;;;;4960888;28;20035;-63
2021/03/22 13:36:23;;;;;;;2.55;0.90;;;;;;;;;;4964431;28;20046;-62
2021/03/22 13:38:49;;;;;;;1.45;0.60;;;;;;;;;;4963628;28;20049;-61
2021/03/22 13:41:25;;;;;;;1.95;0.68;;;;;;;;;;4983320;28;20049;-61
2021/03/22 13:43:51;;;;;;;1.08;0.50;;;;;;;;;;4974768;28;20054;-62
2021/03/22 13:46:27;;;;;;;1.13;0.52;;;;;;;;;;4981098;28;20065;-60
2021/03/22 13:48:53;;;;;;;2.05;0.73;;;;;;;;;;4984498;28;20043;-62
2021/03/22 13:51:21;;;;;;;3.00;0.68;;;;;;;;;;4981314;28;20039;-61
2021/03/22 13:53:49;;;;;;;2.67;0.60;;;;;;;;;;4986019;28;20035;-61
2021/03/22 13:56:15;;;;;;;2.10;0.70;;;;;;;;;;4967390;28;20038;-61
2021/03/22 13:58:41;;;;;;;3.88;0.60;;;;;;;;;;4967249;28;20039;-61
2021/03/22 14:01:08;;;;;;;2.78;0.80;;;;;;;;;;4969073;28;20031;-61
2021/03/22 14:03:34;;;;;;;2.53;0.70;;;;;;;;;;4974613;28;20080;-61
2021/03/22 14:06:08;;;;;;;7.95;0.90;;;;;;;;;;4961705;28;20031;-61
2021/03/22 14:08:34;;;;;;;2.15;0.70;;;;;;;;;;4965124;28;20058;-61
2021/03/22 14:11:01;;;;;;;1.05;0.60;;;;;;;;;;4964111;28;20043;-62
2021/03/22 14:13:27;;;;;;;1.42;0.80;;;;;;;;;;4986923;28;20381;-61
2021/03/22 14:15:58;;;;;;;6.32;1.10;;;;;;;;;;4979891;28;20030;-62
2021/03/22 14:18:25;;;;;;;5.15;0.93;;;;;;;;;;4985340;28;20035;-62
2021/03/22 14:20:51;;;;;;;3.30;0.65;;;;;;;;;;4976560;28;20039;-62
2021/03/22 14:23:19;;;;;;;2.88;0.90;;;;;;;;;;4963492;28;20042;-61
2021/03/22 14:25:45;;;;;;;5.88;0.63;;;;;;;;;;4961194;28;20053;-61
2021/03/22 14:28:13;;;;;;;3.75;0.60;;;;;;;;;;4963903;28;20035;-61
2021/03/22 14:30:40;;;;;;;4.40;0.50;;;;;;;;;;4964198;28;20158;-61
2021/03/22 14:33:08;;;;;;;1.75;0.60;;;;;;;;;;4961280;28;20031;-61
2021/03/22 14:35:34;;;;;;;1.50;0.70;;;;;;;;;;4963649;28;20047;-61
2021/03/22 14:38:00;;;;;;;1.48;0.47;;;;;;;;;;4960722;28;20043;-61
2021/03/22 14:40:26;;;;;;;1.77;0.50;;;;;;;;;;4964149;28;20031;-62
2021/03/22 14:42:52;;;;;;;5.57;0.80;;;;;;;;;;4962059;28;20034;-62
2021/03/22 14:45:22;;;;;;;1.30;0.60;;;;;;;;;;4977729;28;20041;-61
2021/03/22 14:47:48;;;;;;;7.35;0.77;;;;;;;;;;4973581;28;20062;-62
2021/03/22 14:50:15;;;;;;;0.43;0.38;;;;;;;;;;4970251;28;20039;-62
2021/03/22 14:52:42;;;;;;;1.88;0.70;;;;;;;;;;4971876;28;20073;-62
2021/03/22 14:55:09;;;;;;;1.15;0.40;;;;;;;;;;4989795;28;20046;-61
2021/03/22 14:57:35;;;;;;;4.68;0.80;;;;;;;;;;4977255;28;20063;-61
2021/03/22 15:00:02;;;;;;;2.20;0.60;;;;;;;;;;4966964;28;20149;-62